Item Display Status Humidity-temperature Sensor

Elevation Above Sea Level: 3 m

 

Deployed Sensor

  • Serial Number: 20370366
  • NDBC Property Number: 43919
  • Start Date: 5/16/2021 (08:38:07 Z)
  • End Date: Currently Active
Relative Humidity [%]     6 entries per hour
Showing data from 10/4/2022 (03:00:00 Z) to 10/3/2022 (00:00:01 Z)
Previous Next [ Day | 3-Days | 7-Days ]
First Last
Prev [ Day | 3-Days | 7-Days ] Next
First Last

Start Time:     :
End Time:     :     
Time (in GMT) :00 :50 :40 :30 :20 :10
Previous Next [ Day | 3-Days | 7-Days ]
First Last
Prev [ Day | 3-Days | 7-Days ] Next
First Last


123 => good data
MM => data is determined as missing
-- => data not received/configured
Back to Top Back to Top
10/4/2022 03:00 to 2:10 92.24 91.84 91.96 91.60 92.20 91.64
10/4/2022 02:00 to 1:10 91.62 91.72 91.96 92.12 91.90 92.02
10/4/2022 01:00 to 0:10 91.54 91.30 90.75 90.85 90.85 90.73
10/4/2022 00:00 to 23:10 91.11 91.40 92.10 90.63 90.75 90.67
10/3/2022 23:00 to 22:10 90.30 91.05 91.05 90.77 90.89 91.01
10/3/2022 22:00 to 21:10 90.57 90.28 90.10 90.67 90.33 90.97
10/3/2022 21:00 to 20:10 90.99 90.28 90.81 90.99 90.43 89.66
10/3/2022 20:00 to 19:10 89.78 90.55 90.61 90.53 89.82 89.58
10/3/2022 19:00 to 18:10 89.66 89.66 89.80 89.74 88.91 89.13
10/3/2022 18:00 to 17:10 89.62 89.01 87.94 87.90 87.50 87.48
10/3/2022 17:00 to 16:10 87.19 86.85 86.51 86.29 85.40 85.60
10/3/2022 16:00 to 15:10 86.08 85.27 83.94 83.27 84.49 83.82
10/3/2022 15:00 to 14:10 83.68 82.31 82.33 82.24 83.09 83.34
10/3/2022 14:00 to 13:10 82.26 83.46 82.67 81.98 82.45 83.27
10/3/2022 13:00 to 12:10 84.87 86.71 88.45 89.38 92.04 90.12
10/3/2022 12:00 to 11:10 90.31 90.43 92.45 92.39 90.61 89.07
10/3/2022 11:00 to 10:10 88.49 89.58 91.96 92.97 90.39 90.73
10/3/2022 10:00 to 9:10 92.59 92.39 90.20 90.12 91.60 93.32
10/3/2022 09:00 to 8:10 95.07 96.22 93.34 93.46 94.79 95.86
10/3/2022 08:00 to 7:10 93.05 92.04 91.90 91.82 92.37 92.02
10/3/2022 07:00 to 6:10 91.05 89.05 89.11 89.48 90.02 90.45
10/3/2022 06:00 to 5:10 91.25 93.23 94.71 92.99 91.60 91.62
10/3/2022 05:00 to 4:10 91.21 91.94 92.49 92.06 89.09 90.87
10/3/2022 04:00 to 3:10 91.52 91.15 89.29 89.44 87.80 87.54
10/3/2022 03:00 to 2:10 87.32 87.01 86.12 85.23 86.39 89.56
10/3/2022 02:00 to 1:10 88.59 88.49 88.16 88.47 89.05 89.17
10/3/2022 01:00 to 0:10 88.51 88.85 89.07 89.23 88.79 88.06

 

 

 

Air Temperature [°C]     6 entries per hour
Showing data from 10/4/2022 (03:00:00 Z) to 10/3/2022 (00:00:01 Z)
Previous Next [ Day | 3-Days | 7-Days ]
First Last
Prev [ Day | 3-Days | 7-Days ] Next
First Last

Start Time:     :
End Time:     :     
Time (in GMT) :00 :50 :40 :30 :20 :10
Previous Next [ Day | 3-Days | 7-Days ]
First Last
Prev [ Day | 3-Days | 7-Days ] Next
First Last


123 => good data
MM => data is determined as missing
-- => data not received/configured
Back to Top Back to Top
10/4/2022 03:00 to 2:10 22.04 22.12 22.07 21.92 21.95 22.08
10/4/2022 02:00 to 1:10 22.03 22.06 21.99 21.86 21.94 22.23
10/4/2022 01:00 to 0:10 22.04 22.02 22.12 22.15 22.12 22.16
10/4/2022 00:00 to 23:10 22.12 22.03 21.87 21.97 22.07 22.18
10/3/2022 23:00 to 22:10 22.17 22.21 22.23 22.14 22.11 22.21
10/3/2022 22:00 to 21:10 22.36 22.26 22.27 22.27 22.20 22.27
10/3/2022 21:00 to 20:10 22.40 22.28 22.28 22.27 22.42 22.45
10/3/2022 20:00 to 19:10 22.33 22.38 22.17 22.20 22.56 22.29
10/3/2022 19:00 to 18:10 22.29 22.33 22.46 22.46 22.59 22.66
10/3/2022 18:00 to 17:10 22.58 22.61 22.73 22.71 22.80 22.67
10/3/2022 17:00 to 16:10 22.57 22.78 22.71 22.65 22.77 22.80
10/3/2022 16:00 to 15:10 22.76 22.80 22.92 22.98 22.75 22.73
10/3/2022 15:00 to 14:10 22.55 22.94 23.08 22.88 22.80 22.92
10/3/2022 14:00 to 13:10 22.95 22.79 22.90 22.91 22.64 22.67
10/3/2022 13:00 to 12:10 22.52 22.36 22.34 21.83 22.02 22.57
10/3/2022 12:00 to 11:10 21.97 22.26 21.95 21.66 22.27 22.28
10/3/2022 11:00 to 10:10 22.43 22.23 21.84 22.10 22.61 22.18
10/3/2022 10:00 to 9:10 22.07 22.20 22.47 22.08 21.88 21.80
10/3/2022 09:00 to 8:10 21.79 21.87 22.00 21.92 21.71 21.83
10/3/2022 08:00 to 7:10 22.16 22.32 22.18 22.15 22.12 22.34
10/3/2022 07:00 to 6:10 22.62 22.45 22.47 22.43 22.43 22.31
10/3/2022 06:00 to 5:10 22.36 22.17 22.17 22.23 22.16 22.13
10/3/2022 05:00 to 4:10 22.08 21.86 21.87 22.30 22.20 21.94
10/3/2022 04:00 to 3:10 22.10 22.42 22.61 22.40 22.75 22.71
10/3/2022 03:00 to 2:10 22.63 22.77 22.68 22.84 22.35 22.31
10/3/2022 02:00 to 1:10 22.46 22.35 22.40 22.34 22.35 22.13
10/3/2022 01:00 to 0:10 22.30 22.48 22.36 22.45 22.52 22.58